sensor_id;sensor_type;location;lat;lon;timestamp;pressure;altitude;pressure_sealevel;temperature;humidity
30516;BME280;17297;54.022;10.760;2023-11-22T00:02:15;102779.13;;;6.70;66.94
30516;BME280;17297;54.022;10.760;2023-11-22T00:04:40;102790.78;;;6.69;66.94
30516;BME280;17297;54.022;10.760;2023-11-22T00:07:05;102790.06;;;6.67;66.85
30516;BME280;17297;54.022;10.760;2023-11-22T00:09:32;102782.06;;;6.67;67.00
30516;BME280;17297;54.022;10.760;2023-11-22T00:11:58;102780.22;;;6.67;67.02
30516;BME280;17297;54.022;10.760;2023-11-22T00:14:25;102778.41;;;6.68;67.17
30516;BME280;17297;54.022;10.760;2023-11-22T00:16:51;102784.50;;;6.70;67.09
30516;BME280;17297;54.022;10.760;2023-11-22T00:19:16;102790.56;;;6.72;67.29
30516;BME280;17297;54.022;10.760;2023-11-22T00:21:43;102791.31;;;6.74;67.17
30516;BME280;17297;54.022;10.760;2023-11-22T00:24:10;102790.22;;;6.77;67.37
30516;BME280;17297;54.022;10.760;2023-11-22T00:26:35;102782.91;;;6.79;67.33
30516;BME280;17297;54.022;10.760;2023-11-22T00:29:01;102793.50;;;6.80;67.33
30516;BME280;17297;54.022;10.760;2023-11-22T00:31:26;102803.13;;;6.83;67.34
30516;BME280;17297;54.022;10.760;2023-11-22T00:33:52;102802.97;;;6.84;67.33
30516;BME280;17297;54.022;10.760;2023-11-22T00:36:17;102799.38;;;6.85;67.44
30516;BME280;17297;54.022;10.760;2023-11-22T00:38:42;102790.34;;;6.86;67.49
30516;BME280;17297;54.022;10.760;2023-11-22T00:41:09;102788.66;;;6.85;67.40
30516;BME280;17297;54.022;10.760;2023-11-22T00:43:36;102790.47;;;6.85;67.32
30516;BME280;17297;54.022;10.760;2023-11-22T00:46:02;102794.00;;;6.85;67.43
30516;BME280;17297;54.022;10.760;2023-11-22T00:48:27;102798.47;;;6.85;67.38
30516;BME280;17297;54.022;10.760;2023-11-22T00:50:53;102809.31;;;6.83;67.55
30516;BME280;17297;54.022;10.760;2023-11-22T00:53:18;102813.91;;;6.81;67.42
30516;BME280;17297;54.022;10.760;2023-11-22T00:55:43;102823.91;;;6.79;67.42
30516;BME280;17297;54.022;10.760;2023-11-22T00:58:09;102818.66;;;6.78;67.63
30516;BME280;17297;54.022;10.760;2023-11-22T01:00:34;102824.16;;;6.76;67.59
30516;BME280;17297;54.022;10.760;2023-11-22T01:03:00;102833.13;;;6.75;67.51
30516;BME280;17297;54.022;10.760;2023-11-22T01:05:25;102835.91;;;6.74;67.64
30516;BME280;17297;54.022;10.760;2023-11-22T01:07:51;102847.56;;;6.72;67.47
30516;BME280;17297;54.022;10.760;2023-11-22T01:10:16;102852.22;;;6.70;67.59
30516;BME280;17297;54.022;10.760;2023-11-22T01:12:42;102844.28;;;6.69;67.56
30516;BME280;17297;54.022;10.760;2023-11-22T01:15:07;102845.13;;;6.69;67.61
30516;BME280;17297;54.022;10.760;2023-11-22T01:17:34;102841.59;;;6.69;67.73
30516;BME280;17297;54.022;10.760;2023-11-22T01:20:01;102845.13;;;6.69;67.70
30516;BME280;17297;54.022;10.760;2023-11-22T01:22:26;102841.59;;;6.69;67.69
30516;BME280;17297;54.022;10.760;2023-11-22T01:24:52;102835.31;;;6.70;67.92
30516;BME280;17297;54.022;10.760;2023-11-22T01:27:18;102828.84;;;6.72;67.81
30516;BME280;17297;54.022;10.760;2023-11-22T01:29:43;102828.63;;;6.76;68.04
30516;BME280;17297;54.022;10.760;2023-11-22T01:32:08;102839.22;;;6.77;68.03
30516;BME280;17297;54.022;10.760;2023-11-22T01:34:34;102843.47;;;6.80;67.94
30516;BME280;17297;54.022;10.760;2023-11-22T01:37:00;102851.28;;;6.83;68.14
30516;BME280;17297;54.022;10.760;2023-11-22T01:39:25;102859.06;;;6.86;67.87
30516;BME280;17297;54.022;10.760;2023-11-22T01:41:52;102851.03;;;6.86;68.18
30516;BME280;17297;54.022;10.760;2023-11-22T01:44:17;102848.13;;;6.89;68.03
30516;BME280;17297;54.022;10.760;2023-11-22T01:46:43;102850.56;;;6.92;68.22
30516;BME280;17297;54.022;10.760;2023-11-22T01:49:10;102852.13;;;6.94;68.14
30516;BME280;17297;54.022;10.760;2023-11-22T01:51:39;102858.13;;;6.98;68.34
30516;BME280;17297;54.022;10.760;2023-11-22T01:54:07;102849.88;;;7.01;68.26
30516;BME280;17297;54.022;10.760;2023-11-22T01:56:35;102858.59;;;7.03;68.36
30516;BME280;17297;54.022;10.760;2023-11-22T01:59:04;102872.72;;;7.05;68.23
30516;BME280;17297;54.022;10.760;2023-11-22T02:01:30;102875.41;;;7.05;68.06
30516;BME280;17297;54.022;10.760;2023-11-22T02:03:57;102870.91;;;7.06;68.23
30516;BME280;17297;54.022;10.760;2023-11-22T02:06:23;102867.38;;;7.05;68.23
30516;BME280;17297;54.022;10.760;2023-11-22T02:08:48;102862.88;;;7.06;68.27
30516;BME280;17297;54.022;10.760;2023-11-22T02:11:17;102855.81;;;7.05;68.07
30516;BME280;17297;54.022;10.760;2023-11-22T02:13:48;102859.44;;;7.04;68.14
30516;BME280;17297;54.022;10.760;2023-11-22T02:16:15;102868.34;;;7.04;68.16
30516;BME280;17297;54.022;10.760;2023-11-22T02:18:40;102870.16;;;7.04;68.13
30516;BME280;17297;54.022;10.760;2023-11-22T02:21:07;102867.38;;;7.05;68.11
30516;BME280;17297;54.022;10.760;2023-11-22T02:23:32;102867.47;;;7.04;68.28
30516;BME280;17297;54.022;10.760;2023-11-22T02:25:58;102878.19;;;7.04;68.29
30516;BME280;17297;54.022;10.760;2023-11-22T02:28:24;102876.50;;;7.03;68.09
30516;BME280;17297;54.022;10.760;2023-11-22T02:30:50;102877.47;;;7.02;68.29
30516;BME280;17297;54.022;10.760;2023-11-22T02:33:16;102880.16;;;7.02;68.08
30516;BME280;17297;54.022;10.760;2023-11-22T02:35:42;102880.25;;;7.00;68.06
30516;BME280;17297;54.022;10.760;2023-11-22T02:38:07;102891.09;;;6.99;68.14
30516;BME280;17297;54.022;10.760;2023-11-22T02:40:34;102891.19;;;6.97;68.34
30516;BME280;17297;54.022;10.760;2023-11-22T02:42:59;102896.53;;;6.97;68.27
30516;BME280;17297;54.022;10.760;2023-11-22T02:45:30;102900.28;;;6.94;68.18
30516;BME280;17297;54.022;10.760;2023-11-22T02:47:55;102895.94;;;6.93;68.33
30516;BME280;17297;54.022;10.760;2023-11-22T02:50:21;102906.63;;;6.93;68.15
30516;BME280;17297;54.022;10.760;2023-11-22T02:52:47;102896.91;;;6.92;68.32
30516;BME280;17297;54.022;10.760;2023-11-22T02:55:12;102911.13;;;6.93;68.18
30516;BME280;17297;54.022;10.760;2023-11-22T02:57:38;102903.34;;;6.90;68.36
30516;BME280;17297;54.022;10.760;2023-11-22T03:00:08;102912.22;;;6.90;68.26
30516;BME280;17297;54.022;10.760;2023-11-22T03:02:34;102905.16;;;6.89;68.24
30516;BME280;17297;54.022;10.760;2023-11-22T03:05:00;102906.13;;;6.88;68.43
30516;BME280;17297;54.022;10.760;2023-11-22T03:07:26;102911.47;;;6.88;68.41
30516;BME280;17297;54.022;10.760;2023-11-22T03:09:52;102913.19;;;6.89;68.21
30516;BME280;17297;54.022;10.760;2023-11-22T03:12:18;102918.66;;;6.88;68.54
30516;BME280;17297;54.022;10.760;2023-11-22T03:14:45;102909.91;;;6.86;68.41
30516;BME280;17297;54.022;10.760;2023-11-22T03:17:11;102917.94;;;6.86;68.44
30516;BME280;17297;54.022;10.760;2023-11-22T03:19:36;102913.53;;;6.85;68.47
30516;BME280;17297;54.022;10.760;2023-11-22T03:22:01;102917.09;;;6.85;68.54
30516;BME280;17297;54.022;10.760;2023-11-22T03:24:29;102919.84;;;6.84;68.33
30516;BME280;17297;54.022;10.760;2023-11-22T03:26:56;102911.97;;;6.82;68.42
30516;BME280;17297;54.022;10.760;2023-11-22T03:29:25;102929.72;;;6.83;68.45
30516;BME280;17297;54.022;10.760;2023-11-22T03:31:50;102925.19;;;6.84;68.45
30516;BME280;17297;54.022;10.760;2023-11-22T03:34:16;102919.84;;;6.84;68.51
30516;BME280;17297;54.022;10.760;2023-11-22T03:36:42;102926.06;;;6.84;68.59
30516;BME280;17297;54.022;10.760;2023-11-22T03:39:07;102942.09;;;6.84;68.59
30516;BME280;17297;54.022;10.760;2023-11-22T03:41:33;102934.94;;;6.85;68.45
30516;BME280;17297;54.022;10.760;2023-11-22T03:43:58;102942.94;;;6.85;68.49
30516;BME280;17297;54.022;10.760;2023-11-22T03:46:25;102933.97;;;6.86;68.65
30516;BME280;17297;54.022;10.760;2023-11-22T03:48:51;102934.09;;;6.84;68.66
30516;BME280;17297;54.022;10.760;2023-11-22T03:51:16;102935.69;;;6.87;68.69
30516;BME280;17297;54.022;10.760;2023-11-22T03:53:44;102933.97;;;6.86;68.56
30516;BME280;17297;54.022;10.760;2023-11-22T03:56:09;102944.69;;;6.86;68.66
30516;BME280;17297;54.022;10.760;2023-11-22T03:58:35;102948.22;;;6.86;68.71
30516;BME280;17297;54.022;10.760;2023-11-22T04:01:01;102948.22;;;6.86;68.70
30516;BME280;17297;54.022;10.760;2023-11-22T04:03:28;102963.28;;;6.87;68.48
30516;BME280;17297;54.022;10.760;2023-11-22T04:05:53;102969.47;;;6.88;68.53
30516;BME280;17297;54.022;10.760;2023-11-22T04:08:19;102951.72;;;6.87;68.61
30516;BME280;17297;54.022;10.760;2023-11-22T04:10:45;102958.78;;;6.88;68.81
30516;BME280;17297;54.022;10.760;2023-11-22T04:13:10;102954.41;;;6.87;68.72
30516;BME280;17297;54.022;10.760;2023-11-22T04:15:36;102943.84;;;6.85;68.71
30516;BME280;17297;54.022;10.760;2023-11-22T04:18:01;102938.47;;;6.85;68.82
30516;BME280;17297;54.022;10.760;2023-11-22T04:20:26;102942.94;;;6.85;68.80
30516;BME280;17297;54.022;10.760;2023-11-22T04:22:52;102948.44;;;6.83;68.76
30516;BME280;17297;54.022;10.760;2023-11-22T04:25:17;102949.41;;;6.82;68.74
30516;BME280;17297;54.022;10.760;2023-11-22T04:27:43;102946.75;;;6.82;68.66
30516;BME280;17297;54.022;10.760;2023-11-22T04:30:09;102935.28;;;6.80;68.50
30516;BME280;17297;54.022;10.760;2023-11-22T04:32:39;102936.25;;;6.79;68.62
30516;BME280;17297;54.022;10.760;2023-11-22T04:35:05;102935.38;;;6.79;68.83
30516;BME280;17297;54.022;10.760;2023-11-22T04:37:31;102939.88;;;6.78;68.81
30516;BME280;17297;54.022;10.760;2023-11-22T04:40:00;102932.84;;;6.77;68.64
30516;BME280;17297;54.022;10.760;2023-11-22T04:42:32;102932.09;;;6.75;68.71
30516;BME280;17297;54.022;10.760;2023-11-22T04:44:58;102933.91;;;6.75;68.54
30516;BME280;17297;54.022;10.760;2023-11-22T04:47:23;102918.09;;;6.71;68.58
30516;BME280;17297;54.022;10.760;2023-11-22T04:49:48;102927.19;;;6.69;68.84
30516;BME280;17297;54.022;10.760;2023-11-22T04:52:14;102925.59;;;6.66;68.58
30516;BME280;17297;54.022;10.760;2023-11-22T04:54:39;102924.88;;;6.64;68.71
30516;BME280;17297;54.022;10.760;2023-11-22T04:57:05;102918.78;;;6.62;68.67
30516;BME280;17297;54.022;10.760;2023-11-22T04:59:30;102918.16;;;6.59;68.67
30516;BME280;17297;54.022;10.760;2023-11-22T05:01:56;102925.44;;;6.57;68.54
30516;BME280;17297;54.022;10.760;2023-11-22T05:04:21;102925.66;;;6.54;68.69
30516;BME280;17297;54.022;10.760;2023-11-22T05:06:46;102926.78;;;6.51;68.57
30516;BME280;17297;54.022;10.760;2023-11-22T05:09:12;102933.28;;;6.47;68.59
30516;BME280;17297;54.022;10.760;2023-11-22T05:11:38;102934.34;;;6.44;68.64
30516;BME280;17297;54.022;10.760;2023-11-22T05:14:04;102929.25;;;6.41;68.63
30516;BME280;17297;54.022;10.760;2023-11-22T05:16:29;102932.13;;;6.38;68.49
30516;BME280;17297;54.022;10.760;2023-11-22T05:18:55;102946.59;;;6.36;68.58
30516;BME280;17297;54.022;10.760;2023-11-22T05:21:20;102953.97;;;6.32;68.58
30516;BME280;17297;54.022;10.760;2023-11-22T05:23:45;102951.41;;;6.31;68.58
30516;BME280;17297;54.022;10.760;2023-11-22T05:26:11;102948.00;;;6.29;68.58
30516;BME280;17297;54.022;10.760;2023-11-22T05:28:36;102944.69;;;6.25;68.63
30516;BME280;17297;54.022;10.760;2023-11-22T05:31:01;102942.25;;;6.22;68.59
30516;BME280;17297;54.022;10.760;2023-11-22T05:33:27;102951.25;;;6.21;68.64
30516;BME280;17297;54.022;10.760;2023-11-22T05:35:52;102959.47;;;6.18;68.48
30516;BME280;17297;54.022;10.760;2023-11-22T05:38:17;102966.88;;;6.14;68.51
30516;BME280;17297;54.022;10.760;2023-11-22T05:40:43;102966.22;;;6.11;68.39
30516;BME280;17297;54.022;10.760;2023-11-22T05:43:09;102974.34;;;6.09;68.44
30516;BME280;17297;54.022;10.760;2023-11-22T05:45:35;102984.41;;;6.06;68.56
30516;BME280;17297;54.022;10.760;2023-11-22T05:48:00;102976.59;;;6.03;68.61
30516;BME280;17297;54.022;10.760;2023-11-22T05:50:26;102980.25;;;6.01;68.43
30516;BME280;17297;54.022;10.760;2023-11-22T05:52:51;102995.53;;;5.99;68.37
30516;BME280;17297;54.022;10.760;2023-11-22T05:55:17;102993.91;;;5.97;68.39
30516;BME280;17297;54.022;10.760;2023-11-22T05:57:43;102997.66;;;5.94;68.41
30516;BME280;17297;54.022;10.760;2023-11-22T06:00:09;102998.69;;;5.92;68.62
30516;BME280;17297;54.022;10.760;2023-11-22T06:02:35;102990.78;;;5.90;68.56
30516;BME280;17297;54.022;10.760;2023-11-22T06:05:02;102986.44;;;5.89;68.42
30516;BME280;17297;54.022;10.760;2023-11-22T06:07:28;102974.00;;;5.88;68.55
30516;BME280;17297;54.022;10.760;2023-11-22T06:09:54;102967.94;;;5.86;68.61
30516;BME280;17297;54.022;10.760;2023-11-22T06:12:19;102956.41;;;5.86;68.39
30516;BME280;17297;54.022;10.760;2023-11-22T06:14:46;102953.72;;;5.86;68.48
30516;BME280;17297;54.022;10.760;2023-11-22T06:17:12;102939.50;;;5.85;68.52
30516;BME280;17297;54.022;10.760;2023-11-22T06:19:37;102944.00;;;5.85;68.36
30516;BME280;17297;54.022;10.760;2023-11-22T06:22:03;102947.50;;;5.85;68.52
30516;BME280;17297;54.022;10.760;2023-11-22T06:24:28;102938.66;;;5.85;68.58
30516;BME280;17297;54.022;10.760;2023-11-22T06:26:54;102934.16;;;5.85;68.60
30516;BME280;17297;54.022;10.760;2023-11-22T06:29:19;102936.72;;;5.87;68.47
30516;BME280;17297;54.022;10.760;2023-11-22T06:31:45;102915.38;;;5.87;68.69
30516;BME280;17297;54.022;10.760;2023-11-22T06:34:11;102913.53;;;5.87;68.67
30516;BME280;17297;54.022;10.760;2023-11-22T06:36:37;102903.63;;;5.89;68.67
30516;BME280;17297;54.022;10.760;2023-11-22T06:39:03;102903.47;;;5.91;68.70
30516;BME280;17297;54.022;10.760;2023-11-22T06:41:29;102905.13;;;5.93;68.56
30516;BME280;17297;54.022;10.760;2023-11-22T06:43:54;102912.91;;;5.96;68.72
30516;BME280;17297;54.022;10.760;2023-11-22T06:46:19;102926.91;;;6.00;68.70
30516;BME280;17297;54.022;10.760;2023-11-22T06:48:45;102929.56;;;6.00;68.49
30516;BME280;17297;54.022;10.760;2023-11-22T06:51:10;102938.44;;;6.00;68.58
30516;BME280;17297;54.022;10.760;2023-11-22T06:53:36;102947.31;;;6.01;68.52
30516;BME280;17297;54.022;10.760;2023-11-22T06:56:01;102950.84;;;6.01;68.58
30516;BME280;17297;54.022;10.760;2023-11-22T06:58:27;102933.00;;;6.02;68.59
30516;BME280;17297;54.022;10.760;2023-11-22T07:00:52;102916.97;;;6.02;68.40
30516;BME280;17297;54.022;10.760;2023-11-22T07:03:18;102929.13;;;6.06;68.61
30516;BME280;17297;54.022;10.760;2023-11-22T07:05:43;102919.72;;;6.13;68.85
30516;BME280;17297;54.022;10.760;2023-11-22T07:08:09;102932.34;;;6.35;69.09
30516;BME280;17297;54.022;10.760;2023-11-22T07:10:36;102947.13;;;6.65;69.55
30516;BME280;17297;54.022;10.760;2023-11-22T07:13:01;102955.19;;;7.00;69.28
30516;BME280;17297;54.022;10.760;2023-11-22T07:15:27;102956.88;;;7.36;69.31
30516;BME280;17297;54.022;10.760;2023-11-22T07:17:52;102942.72;;;7.70;68.84
30516;BME280;17297;54.022;10.760;2023-11-22T07:20:19;102962.28;;;7.81;68.20
30516;BME280;17297;54.022;10.760;2023-11-22T07:22:45;102959.00;;;7.78;67.50
30516;BME280;17297;54.022;10.760;2023-11-22T07:25:10;102958.03;;;7.68;67.45
30516;BME280;17297;54.022;10.760;2023-11-22T07:27:46;102966.19;;;7.55;67.35
30516;BME280;17297;54.022;10.760;2023-11-22T07:30:15;102954.59;;;7.43;67.33
30516;BME280;17297;54.022;10.760;2023-11-22T07:32:41;102958.94;;;7.33;67.27
30516;BME280;17297;54.022;10.760;2023-11-22T07:35:07;102958.81;;;7.23;67.51
30516;BME280;17297;54.022;10.760;2023-11-22T07:37:36;102973.97;;;7.11;67.58
30516;BME280;17297;54.022;10.760;2023-11-22T07:40:05;102978.09;;;7.04;67.45
30516;BME280;17297;54.022;10.760;2023-11-22T07:42:33;102986.69;;;6.97;67.71
30516;BME280;17297;54.022;10.760;2023-11-22T07:44:58;102995.16;;;6.90;67.61
30516;BME280;17297;54.022;10.760;2023-11-22T07:47:23;103008.91;;;6.86;67.80
30516;BME280;17297;54.022;10.760;2023-11-22T07:49:52;103010.19;;;6.80;67.85
30516;BME280;17297;54.022;10.760;2023-11-22T07:52:17;103007.75;;;6.77;67.66
30516;BME280;17297;54.022;10.760;2023-11-22T07:54:43;103017.81;;;6.74;67.68
30516;BME280;17297;54.022;10.760;2023-11-22T07:57:09;103018.91;;;6.71;67.75
30516;BME280;17297;54.022;10.760;2023-11-22T07:59:35;103016.44;;;6.68;67.74
30516;BME280;17297;54.022;10.760;2023-11-22T08:02:02;103001.47;;;6.65;67.95
30516;BME280;17297;54.022;10.760;2023-11-22T08:04:27;103004.28;;;6.64;67.97
30516;BME280;17297;54.022;10.760;2023-11-22T08:06:54;102996.34;;;6.62;67.69
30516;BME280;17297;54.022;10.760;2023-11-22T08:09:22;102993.91;;;6.59;67.98
30516;BME280;17297;54.022;10.760;2023-11-22T08:11:48;102993.91;;;6.59;68.03
30516;BME280;17297;54.022;10.760;2023-11-22T08:14:14;102981.50;;;6.58;68.05
30516;BME280;17297;54.022;10.760;2023-11-22T08:16:39;102974.41;;;6.57;68.00
30516;BME280;17297;54.022;10.760;2023-11-22T08:19:08;102965.56;;;6.57;68.13
30516;BME280;17297;54.022;10.760;2023-11-22T08:21:34;102973.47;;;6.58;68.08
30516;BME280;17297;54.022;10.760;2023-11-22T08:23:59;102968.13;;;6.58;68.18
30516;BME280;17297;54.022;10.760;2023-11-22T08:26:25;102970.81;;;6.58;67.93
30516;BME280;17297;54.022;10.760;2023-11-22T08:28:51;102971.66;;;6.59;68.15
30516;BME280;17297;54.022;10.760;2023-11-22T08:31:16;102970.69;;;6.60;68.02
30516;BME280;17297;54.022;10.760;2023-11-22T08:33:42;102967.06;;;6.61;68.21
30516;BME280;17297;54.022;10.760;2023-11-22T08:36:08;102949.19;;;6.61;67.97
30516;BME280;17297;54.022;10.760;2023-11-22T08:38:34;102956.22;;;6.62;68.06
30516;BME280;17297;54.022;10.760;2023-11-22T08:41:04;102951.72;;;6.63;68.08
30516;BME280;17297;54.022;10.760;2023-11-22T08:43:34;102967.78;;;6.63;68.05
30516;BME280;17297;54.022;10.760;2023-11-22T08:46:00;102968.63;;;6.63;68.07
30516;BME280;17297;54.022;10.760;2023-11-22T08:48:25;102975.56;;;6.66;67.93
30516;BME280;17297;54.022;10.760;2023-11-22T08:50:51;102972.81;;;6.67;68.08
30516;BME280;17297;54.022;10.760;2023-11-22T08:53:19;102971.94;;;6.67;68.18
30516;BME280;17297;54.022;10.760;2023-11-22T08:55:45;102983.38;;;6.69;68.32
30516;BME280;17297;54.022;10.760;2023-11-22T08:58:10;102961.88;;;6.70;68.37
30516;BME280;17297;54.022;10.760;2023-11-22T09:00:36;102963.47;;;6.73;68.14
30516;BME280;17297;54.022;10.760;2023-11-22T09:03:02;102971.38;;;6.75;68.39
30516;BME280;17297;54.022;10.760;2023-11-22T09:05:28;102954.34;;;6.76;68.34
30516;BME280;17297;54.022;10.760;2023-11-22T09:07:54;102939.16;;;6.76;68.24
30516;BME280;17297;54.022;10.760;2023-11-22T09:10:21;102956.78;;;6.79;68.21
30516;BME280;17297;54.022;10.760;2023-11-22T09:12:47;102978.09;;;6.80;68.23
30516;BME280;17297;54.022;10.760;2023-11-22T09:15:13;102968.00;;;6.84;68.25
30516;BME280;17297;54.022;10.760;2023-11-22T09:17:42;102959.75;;;6.87;68.30
30516;BME280;17297;54.022;10.760;2023-11-22T09:20:17;102959.63;;;6.88;68.48
30516;BME280;17297;54.022;10.760;2023-11-22T09:22:45;102974.72;;;6.89;68.37
30516;BME280;17297;54.022;10.760;2023-11-22T09:25:14;102979.84;;;6.92;68.48
30516;BME280;17297;54.022;10.760;2023-11-22T09:27:41;102976.94;;;6.96;68.48
30516;BME280;17297;54.022;10.760;2023-11-22T09:30:07;102989.25;;;6.98;68.39
30516;BME280;17297;54.022;10.760;2023-11-22T09:32:36;102984.75;;;6.99;68.58
30516;BME280;17297;54.022;10.760;2023-11-22T09:35:03;103009.47;;;7.02;68.37
30516;BME280;17297;54.022;10.760;2023-11-22T09:37:29;103010.22;;;7.04;68.57
30516;BME280;17297;54.022;10.760;2023-11-22T09:39:54;103006.41;;;7.07;68.38
30516;BME280;17297;54.022;10.760;2023-11-22T09:42:20;103006.31;;;7.08;68.51
30516;BME280;17297;54.022;10.760;2023-11-22T09:44:46;103026.66;;;7.11;68.57
30516;BME280;17297;54.022;10.760;2023-11-22T09:47:13;103007.78;;;7.12;68.28
30516;BME280;17297;54.022;10.760;2023-11-22T09:49:40;103009.38;;;7.15;68.31
30516;BME280;17297;54.022;10.760;2023-11-22T09:52:09;103006.72;;;7.15;68.49
30516;BME280;17297;54.022;10.760;2023-11-22T09:54:37;103000.16;;;7.19;68.33
30516;BME280;17297;54.022;10.760;2023-11-22T09:57:06;102983.00;;;7.22;68.56
30516;BME280;17297;54.022;10.760;2023-11-22T09:59:36;102982.03;;;7.23;68.38
30516;BME280;17297;54.022;10.760;2023-11-22T10:02:05;102997.00;;;7.25;68.37
30516;BME280;17297;54.022;10.760;2023-11-22T10:04:31;102996.06;;;7.26;68.57
30516;BME280;17297;54.022;10.760;2023-11-22T10:06:57;102992.25;;;7.29;68.37
30516;BME280;17297;54.022;10.760;2023-11-22T10:09:24;102977.69;;;7.33;68.37
30516;BME280;17297;54.022;10.760;2023-11-22T10:11:49;102960.53;;;7.35;68.38
30516;BME280;17297;54.022;10.760;2023-11-22T10:14:24;102955.91;;;7.37;68.50
30516;BME280;17297;54.022;10.760;2023-11-22T10:17:00;102959.19;;;7.41;68.43
30516;BME280;17297;54.022;10.760;2023-11-22T10:19:27;102954.59;;;7.43;68.47
30516;BME280;17297;54.022;10.760;2023-11-22T10:22:04;102943.78;;;7.45;68.39
30516;BME280;17297;54.022;10.760;2023-11-22T10:24:33;102942.56;;;7.49;68.17
30516;BME280;17297;54.022;10.760;2023-11-22T10:27:00;102922.72;;;7.51;68.53
30516;BME280;17297;54.022;10.760;2023-11-22T10:29:25;102908.22;;;7.54;68.21
30516;BME280;17297;54.022;10.760;2023-11-22T10:31:52;102918.69;;;7.57;68.09
30516;BME280;17297;54.022;10.760;2023-11-22T10:34:21;102909.69;;;7.58;68.19
30516;BME280;17297;54.022;10.760;2023-11-22T10:36:48;102912.13;;;7.61;68.17
30516;BME280;17297;54.022;10.760;2023-11-22T10:39:18;102905.69;;;7.63;67.84
30516;BME280;17297;54.022;10.760;2023-11-22T10:41:45;102897.50;;;7.65;67.96
30516;BME280;17297;54.022;10.760;2023-11-22T10:44:10;102900.94;;;7.67;67.87
30516;BME280;17297;54.022;10.760;2023-11-22T10:46:39;102898.00;;;7.70;67.90
30516;BME280;17297;54.022;10.760;2023-11-22T10:49:04;102881.69;;;7.73;67.82
30516;BME280;17297;54.022;10.760;2023-11-22T10:51:31;102865.47;;;7.75;67.50
30516;BME280;17297;54.022;10.760;2023-11-22T10:53:58;102863.78;;;7.74;67.31
30516;BME280;17297;54.022;10.760;2023-11-22T10:56:26;102867.19;;;7.76;67.35
30516;BME280;17297;54.022;10.760;2023-11-22T10:58:56;102858.28;;;7.75;67.06
30516;BME280;17297;54.022;10.760;2023-11-22T11:01:26;102852.09;;;7.75;66.95
30516;BME280;17297;54.022;10.760;2023-11-22T11:03:56;102842.22;;;7.75;67.01
30516;BME280;17297;54.022;10.760;2023-11-22T11:06:28;102842.22;;;7.75;66.83
30516;BME280;17297;54.022;10.760;2023-11-22T11:08:59;102843.78;;;7.78;67.04
30516;BME280;17297;54.022;10.760;2023-11-22T11:11:25;102836.16;;;7.73;66.74
30516;BME280;17297;54.022;10.760;2023-11-22T11:13:51;102811.19;;;7.73;66.72
30516;BME280;17297;54.022;10.760;2023-11-22T11:16:18;102810.31;;;7.72;66.46
30516;BME280;17297;54.022;10.760;2023-11-22T11:18:44;102799.72;;;7.71;66.42
30516;BME280;17297;54.022;10.760;2023-11-22T11:21:10;102801.41;;;7.72;66.40
30516;BME280;17297;54.022;10.760;2023-11-22T11:23:39;102802.41;;;7.71;66.17
30516;BME280;17297;54.022;10.760;2023-11-22T11:26:20;102772.09;;;7.70;66.15
30516;BME280;17297;54.022;10.760;2023-11-22T11:28:51;102765.88;;;7.70;66.22
30516;BME280;17297;54.022;10.760;2023-11-22T11:31:20;102754.28;;;7.69;65.93
30516;BME280;17297;54.022;10.760;2023-11-22T11:36:25;102747.38;;;7.67;65.76
30516;BME280;17297;54.022;10.760;2023-11-22T11:38:56;102750.06;;;7.67;65.64
30516;BME280;17297;54.022;10.760;2023-11-22T11:41:31;102749.06;;;7.68;65.73
30516;BME280;17297;54.022;10.760;2023-11-22T11:44:07;102745.56;;;7.67;65.72
30516;BME280;17297;54.022;10.760;2023-11-22T11:46:33;102760.78;;;7.67;65.67
30516;BME280;17297;54.022;10.760;2023-11-22T11:48:59;102746.50;;;7.66;65.62
30516;BME280;17297;54.022;10.760;2023-11-22T11:51:28;102710.84;;;7.66;65.42
30516;BME280;17297;54.022;10.760;2023-11-22T11:53:57;102695.75;;;7.64;65.24
30516;BME280;17297;54.022;10.760;2023-11-22T11:56:22;102702.94;;;7.64;65.17
30516;BME280;17297;54.022;10.760;2023-11-22T11:58:49;102729.72;;;7.64;65.12
30516;BME280;17297;54.022;10.760;2023-11-22T12:01:16;102749.31;;;7.64;65.08
30516;BME280;17297;54.022;10.760;2023-11-22T12:03:43;102765.41;;;7.64;64.95
30516;BME280;17297;54.022;10.760;2023-11-22T12:06:15;102758.47;;;7.62;64.87
30516;BME280;17297;54.022;10.760;2023-11-22T12:08:42;102745.91;;;7.62;64.85
30516;BME280;17297;54.022;10.760;2023-11-22T12:11:08;102739.72;;;7.62;64.78
30516;BME280;17297;54.022;10.760;2023-11-22T12:13:34;102744.31;;;7.60;64.62
30516;BME280;17297;54.022;10.760;2023-11-22T12:16:00;102744.47;;;7.58;64.50
30516;BME280;17297;54.022;10.760;2023-11-22T12:18:28;102734.84;;;7.56;64.52
30516;BME280;17297;54.022;10.760;2023-11-22T12:20:55;102718.91;;;7.54;64.59
30516;BME280;17297;54.022;10.760;2023-11-22T12:23:21;102724.38;;;7.53;64.61
30516;BME280;17297;54.022;10.760;2023-11-22T12:25:47;102717.34;;;7.52;64.55
30516;BME280;17297;54.022;10.760;2023-11-22T12:28:13;102718.31;;;7.51;64.29
30516;BME280;17297;54.022;10.760;2023-11-22T12:30:41;102734.41;;;7.51;64.35
30516;BME280;17297;54.022;10.760;2023-11-22T12:33:09;102718.44;;;7.49;64.30
30516;BME280;17297;54.022;10.760;2023-11-22T12:35:35;102704.19;;;7.49;64.34
30516;BME280;17297;54.022;10.760;2023-11-22T12:38:04;102700.69;;;7.48;64.22
30516;BME280;17297;54.022;10.760;2023-11-22T12:40:31;102688.25;;;7.47;64.25
30516;BME280;17297;54.022;10.760;2023-11-22T12:42:57;102683.88;;;7.46;64.31
30516;BME280;17297;54.022;10.760;2023-11-22T12:45:24;102686.53;;;7.46;64.26
30516;BME280;17297;54.022;10.760;2023-11-22T12:47:51;102680.34;;;7.46;64.14
30516;BME280;17297;54.022;10.760;2023-11-22T12:50:36;102672.41;;;7.44;64.31